Time;durP1;ratioP1;P1;durP2;ratioP2;P2;SDS_P1;SDS_P2;PMS_P1;PMS_P2;Temp;Humidity;BMP_temperature;BMP_pressure;BME280_temperature;BME280_humidity;BME280_pressure;Samples;Min_cycle;Max_cycle;Signal;HPM_P1;HPM_P2
2022/09/18 00:02:06;;;;;;;8.50;4.05;;;333.60;2329.60;;;;;;5133885;27;20034;-74
2022/09/18 00:04:32;;;;;;;5.47;3.55;;;333.50;2329.60;;;;;;5133919;27;20022;-75
2022/09/18 00:06:59;;;;;;;5.07;3.45;;;333.60;2329.60;;;;;;5116124;27;20030;-74
2022/09/18 00:09:25;;;;;;;5.75;3.75;;;333.60;2329.60;;;;;;5115722;27;20063;-74
2022/09/18 00:11:50;;;;;;;6.45;3.75;;;333.60;2329.60;;;;;;5129485;27;20504;-75
2022/09/18 00:14:21;;;;;;;5.95;3.40;;;333.70;2329.60;;;;;;5134185;27;20023;-74
2022/09/18 00:16:48;;;;;;;5.35;3.47;;;333.50;2329.60;;;;;;5133910;27;20043;-74
2022/09/18 00:19:15;;;;;;;5.50;3.40;;;333.50;2329.60;;;;;;5134293;27;20015;-74
2022/09/18 00:21:43;;;;;;;5.57;3.38;;;333.50;2329.60;;;;;;5133893;27;20110;-74
2022/09/18 00:24:09;;;;;;;6.40;3.60;;;333.50;2329.60;;;;;;5115499;27;20038;-74
2022/09/18 00:26:35;;;;;;;7.00;3.28;;;333.50;2329.60;;;;;;5149554;27;20130;-75
2022/09/18 00:29:01;;;;;;;6.25;3.13;;;333.40;2329.60;;;;;;5134013;27;20069;-74
2022/09/18 00:31:31;;;;;;;4.38;3.13;;;333.40;2329.60;;;;;;5115446;27;20051;-75
2022/09/18 00:33:58;;;;;;;6.45;3.20;;;333.40;2329.60;;;;;;5149895;27;20113;-75
2022/09/18 00:36:25;;;;;;;5.60;3.03;;;333.40;2329.60;;;;;;5133914;27;20102;-74
2022/09/18 00:38:51;;;;;;;5.95;3.05;;;333.60;2329.60;;;;;;5133607;27;20027;-74
2022/09/18 00:41:23;;;;;;;4.70;3.15;;;333.50;2329.60;;;;;;5133807;27;20034;-74
2022/09/18 00:43:50;;;;;;;7.53;2.58;;;333.60;2329.60;;;;;;5114534;27;20050;-74
2022/09/18 00:46:37;;;;;;;5.18;2.92;;;333.60;2329.60;;;;;;5133716;27;20027;-74
2022/09/18 00:49:12;;;;;;;4.40;3.30;;;333.70;2329.60;;;;;;5133843;27;20045;-74
2022/09/18 00:51:38;;;;;;;5.15;2.70;;;333.60;2329.60;;;;;;5114892;27;20019;-74
2022/09/18 00:54:24;;;;;;;4.30;2.50;;;333.60;2329.60;;;;;;5133693;27;20420;-74
2022/09/18 00:56:54;;;;;;;3.83;2.47;;;333.60;2329.60;;;;;;5119586;27;20019;-74
2022/09/18 00:59:31;;;;;;;6.47;2.63;;;333.60;2329.60;;;;;;5133458;27;20023;-74
2022/09/18 01:01:59;;;;;;;4.00;2.58;;;333.60;2329.60;;;;;;5119565;27;20032;-74
2022/09/18 01:04:26;;;;;;;5.85;2.60;;;333.60;2329.60;;;;;;5133130;27;20026;-74
2022/09/18 01:07:33;;;;;;;5.50;2.70;;;333.60;2329.60;;;;;;5133323;27;20176;-74
2022/09/18 01:10:26;;;;;;;3.80;2.25;;;333.60;2329.60;;;;;;5127333;27;20054;-74
2022/09/18 01:12:57;;;;;;;6.18;2.33;;;333.60;2329.60;;;;;;5121242;27;20061;-74
2022/09/18 01:15:42;;;;;;;5.20;2.08;;;333.60;2329.60;;;;;;5114139;27;20023;-74
2022/09/18 01:18:19;;;;;;;3.45;1.85;;;333.60;2329.60;;;;;;5142956;27;20015;-74
2022/09/18 01:21:22;;;;;;;4.22;2.20;;;333.60;2329.60;;;;;;5136054;27;20043;-74
2022/09/18 01:24:02;;;;;;;7.15;2.58;;;333.60;2329.60;;;;;;5114663;27;20039;-74
2022/09/18 01:26:34;;;;;;;3.78;2.33;;;333.60;2329.60;;;;;;5133078;27;20026;-74
2022/09/18 01:29:10;;;;;;;7.20;2.05;;;333.50;2329.60;;;;;;5132867;27;20015;-74
2022/09/18 01:31:50;;;;;;;5.13;2.20;;;333.50;2329.60;;;;;;5133105;27;20031;-74
2022/09/18 01:34:37;;;;;;;4.00;2.85;;;333.60;2329.60;;;;;;5132796;27;20032;-74
2022/09/18 01:37:23;;;;;;;5.90;2.63;;;333.60;2329.60;;;;;;5132828;27;20019;-75
2022/09/18 01:39:54;;;;;;;7.77;2.00;;;333.60;2329.60;;;;;;5100294;28;20167;-74
2022/09/18 01:42:24;;;;;;;3.30;1.90;;;333.60;2329.60;;;;;;5148585;27;20039;-74
2022/09/18 01:44:54;;;;;;;4.95;2.08;;;333.60;2329.60;;;;;;5113857;28;20482;-74
2022/09/18 01:47:24;;;;;;;4.07;2.40;;;333.60;2329.60;;;;;;5132845;27;20030;-74
2022/09/18 01:49:52;;;;;;;3.95;2.05;;;333.60;2329.60;;;;;;5114145;28;20027;-75
2022/09/18 01:52:21;;;;;;;5.68;1.95;;;333.60;2329.60;;;;;;5114531;28;20087;-74
2022/09/18 01:54:49;;;;;;;3.35;2.10;;;333.60;2329.60;;;;;;5132619;27;20027;-74
2022/09/18 01:57:22;;;;;;;5.00;2.08;;;333.60;2329.60;;;;;;5114550;28;20012;-74
2022/09/18 01:59:57;;;;;;;4.40;1.80;;;333.50;2329.60;;;;;;5132770;27;20072;-74
2022/09/18 02:02:35;;;;;;;4.20;1.92;;;333.50;2329.60;;;;;;5132386;27;20042;-74
2022/09/18 02:05:06;;;;;;;4.85;2.25;;;333.60;2329.60;;;;;;5148405;27;20080;-74
2022/09/18 02:07:49;;;;;;;3.55;1.88;;;333.50;2329.60;;;;;;5114263;28;20022;-74
2022/09/18 02:10:15;;;;;;;3.50;1.80;;;333.40;2329.60;;;;;;5132777;27;20088;-74
2022/09/18 02:12:43;;;;;;;8.38;2.35;;;333.50;2329.60;;;;;;5146304;27;20048;-74
2022/09/18 02:15:12;;;;;;;6.57;2.03;;;333.40;2329.60;;;;;;5132545;27;20416;-74
2022/09/18 02:17:52;;;;;;;5.68;2.53;;;333.40;2329.60;;;;;;5132424;27;20090;-75
2022/09/18 02:20:27;;;;;;;6.13;2.80;;;333.50;2329.60;;;;;;5132634;27;20023;-74
2022/09/18 02:22:57;;;;;;;4.97;2.80;;;333.40;2329.60;;;;;;5118799;27;20035;-74
2022/09/18 02:25:30;;;;;;;4.95;1.85;;;333.40;2329.60;;;;;;5132559;27;20061;-74
2022/09/18 02:27:57;;;;;;;6.63;1.70;;;333.40;2329.60;;;;;;5119930;27;20026;-74
2022/09/18 02:30:24;;;;;;;2.67;1.52;;;333.50;2329.60;;;;;;5152457;27;20023;-74
2022/09/18 02:32:55;;;;;;;2.75;1.58;;;333.50;2329.60;;;;;;5136165;27;20042;-74
2022/09/18 02:35:24;;;;;;;5.18;2.05;;;333.60;2329.60;;;;;;5136147;27;20019;-74
2022/09/18 02:38:01;;;;;;;4.20;1.80;;;333.60;2329.60;;;;;;5136239;27;20064;-74
2022/09/18 02:40:37;;;;;;;4.10;1.80;;;333.60;2329.60;;;;;;5136160;27;20035;-74
2022/09/18 02:43:24;;;;;;;3.60;1.60;;;333.60;2329.60;;;;;;5135896;27;20034;-74
2022/09/18 02:46:06;;;;;;;6.43;1.80;;;333.60;2329.60;;;;;;5136085;27;20068;-74
2022/09/18 02:48:56;;;;;;;3.53;1.77;;;333.60;2329.60;;;;;;5105325;27;20051;-74
2022/09/18 02:51:31;;;;;;;6.68;1.80;;;333.50;2329.60;;;;;;5135742;27;20015;-74
2022/09/18 02:54:12;;;;;;;2.22;1.42;;;333.50;2329.60;;;;;;5135907;27;20075;-74
2022/09/18 02:57:02;;;;;;;4.65;2.05;;;333.50;2329.60;;;;;;5135901;27;20094;-74
2022/09/18 02:59:45;;;;;;;4.53;1.40;;;333.50;2329.60;;;;;;5135762;27;20055;-74
2022/09/18 03:02:11;;;;;;;6.78;2.78;;;333.40;2329.60;;;;;;5131977;27;20058;-74
2022/09/18 03:04:37;;;;;;;3.80;1.70;;;333.50;2329.60;;;;;;5123061;27;20179;-74
2022/09/18 03:07:03;;;;;;;3.50;1.92;;;333.40;2329.60;;;;;;5135604;27;20459;-73
2022/09/18 03:09:29;;;;;;;6.60;2.10;;;333.40;2329.60;;;;;;5135415;27;20825;-74
2022/09/18 03:11:55;;;;;;;3.03;1.83;;;333.40;2329.60;;;;;;5134030;27;20031;-74
2022/09/18 03:14:21;;;;;;;4.30;2.05;;;333.30;2329.60;;;;;;5135570;27;20023;-74
2022/09/18 03:16:47;;;;;;;4.95;1.98;;;333.30;2329.60;;;;;;5150787;27;20041;-74
2022/09/18 03:19:13;;;;;;;6.95;1.98;;;333.20;2329.60;;;;;;5135509;27;20106;-73
2022/09/18 03:21:40;;;;;;;6.35;2.28;;;333.20;2329.60;;;;;;5116935;27;20110;-74
2022/09/18 03:24:05;;;;;;;5.03;2.25;;;333.10;2329.60;;;;;;5135086;27;20023;-74
2022/09/18 03:26:31;;;;;;;4.05;1.70;;;333.10;2329.60;;;;;;5135507;27;20023;-74
2022/09/18 03:28:57;;;;;;;5.05;2.40;;;333.10;2329.60;;;;;;5135062;27;20051;-74
2022/09/18 03:31:24;;;;;;;3.30;1.85;;;333.10;2329.60;;;;;;5116016;27;20052;-74
2022/09/18 03:33:49;;;;;;;3.40;1.98;;;333.20;2329.60;;;;;;5134813;27;20051;-74
2022/09/18 03:36:15;;;;;;;6.03;2.10;;;333.20;2329.60;;;;;;5135065;27;20488;-74
2022/09/18 03:38:41;;;;;;;4.82;1.88;;;333.20;2329.60;;;;;;5126961;27;20121;-74
2022/09/18 03:41:07;;;;;;;3.88;1.98;;;333.20;2329.60;;;;;;5137893;27;20426;-75
2022/09/18 03:43:34;;;;;;;4.22;2.00;;;333.20;2329.60;;;;;;5116358;27;20484;-74
2022/09/18 03:46:00;;;;;;;9.57;2.38;;;333.20;2329.60;;;;;;5134732;27;20097;-74
2022/09/18 03:48:26;;;;;;;10.13;2.65;;;333.20;2329.60;;;;;;5134885;27;20042;-74
2022/09/18 03:50:52;;;;;;;4.63;1.67;;;333.10;2329.60;;;;;;5134691;27;20066;-74
2022/09/18 03:53:18;;;;;;;5.68;2.42;;;333.10;2329.60;;;;;;5130555;27;20429;-74
2022/09/18 03:55:45;;;;;;;4.45;2.55;;;333.00;2329.60;;;;;;5134532;27;20496;-74
2022/09/18 03:58:11;;;;;;;6.80;2.70;;;333.10;2329.60;;;;;;5134606;27;20057;-74
2022/09/18 04:00:37;;;;;;;4.60;2.30;;;333.10;2329.60;;;;;;5134516;27;20432;-75
2022/09/18 04:03:03;;;;;;;4.30;2.30;;;333.00;2329.60;;;;;;5134433;27;20189;-74
2022/09/18 04:05:29;;;;;;;5.00;2.60;;;333.00;2329.60;;;;;;5134359;27;20372;-75
2022/09/18 04:07:55;;;;;;;6.93;2.10;;;333.10;2329.60;;;;;;5134572;27;20023;-75
2022/09/18 04:10:21;;;;;;;3.63;1.70;;;333.10;2329.60;;;;;;5151594;27;20521;-74
2022/09/18 04:12:47;;;;;;;5.05;1.88;;;333.00;2329.60;;;;;;5147077;27;20099;-74
2022/09/18 04:15:14;;;;;;;5.10;2.30;;;333.00;2329.60;;;;;;5134448;27;20068;-74
2022/09/18 04:17:40;;;;;;;4.28;1.98;;;333.00;2329.60;;;;;;5133822;27;20022;-74
2022/09/18 04:20:07;;;;;;;4.15;1.85;;;333.00;2329.60;;;;;;5134363;27;20022;-74
2022/09/18 04:22:33;;;;;;;4.50;2.10;;;332.90;2329.60;;;;;;5134057;27;20484;-74
2022/09/18 04:24:58;;;;;;;5.30;2.08;;;332.90;2329.60;;;;;;5115743;27;20027;-74
2022/09/18 04:27:24;;;;;;;2.83;2.00;;;332.90;2329.60;;;;;;5134011;27;20098;-74
2022/09/18 04:29:53;;;;;;;3.22;2.13;;;332.90;2329.60;;;;;;5134031;27;20090;-74
2022/09/18 04:32:18;;;;;;;5.13;2.08;;;332.80;2329.60;;;;;;5133756;27;20047;-75
2022/09/18 04:34:44;;;;;;;6.57;2.05;;;332.80;2329.60;;;;;;5149833;27;20051;-74
2022/09/18 04:37:10;;;;;;;5.57;2.20;;;332.80;2329.60;;;;;;5141175;27;20058;-74
2022/09/18 04:39:35;;;;;;;3.03;1.80;;;332.80;2329.60;;;;;;5140838;27;20130;-74
2022/09/18 04:42:01;;;;;;;2.83;1.77;;;308.10;2304.00;;;;;;5133745;27;20027;-75
2022/09/18 04:44:27;;;;;;;4.63;2.03;;;308.10;2304.00;;;;;;5133645;27;20511;-74
2022/09/18 04:46:53;;;;;;;6.63;2.35;;;308.10;2304.00;;;;;;5115262;27;20383;-74
2022/09/18 04:49:19;;;;;;;3.53;2.10;;;308.10;2304.00;;;;;;5115009;27;20027;-74
2022/09/18 04:51:45;;;;;;;4.97;1.85;;;308.10;2304.00;;;;;;5115086;27;20027;-73
2022/09/18 04:54:11;;;;;;;5.03;2.10;;;308.10;2304.00;;;;;;5133442;27;20019;-74
2022/09/18 04:56:37;;;;;;;3.72;2.05;;;308.10;2304.00;;;;;;5136178;27;20380;-74
2022/09/18 04:59:03;;;;;;;2.83;1.75;;;308.10;2304.00;;;;;;5141318;27;20019;-75
2022/09/18 05:01:29;;;;;;;3.67;2.15;;;308.10;2304.00;;;;;;5135774;27;20024;-74
2022/09/18 05:03:55;;;;;;;5.05;2.28;;;308.10;2304.00;;;;;;5133315;27;20035;-75
2022/09/18 05:06:20;;;;;;;7.60;2.00;;;308.00;2304.00;;;;;;5114758;27;20055;-74
2022/09/18 05:08:46;;;;;;;5.95;2.00;;;308.00;2304.00;;;;;;5133391;27;20046;-75
2022/09/18 05:11:12;;;;;;;4.68;2.22;;;308.00;2304.00;;;;;;5157951;27;20042;-76
2022/09/18 05:13:39;;;;;;;3.97;2.05;;;308.00;2304.00;;;;;;5121882;27;20031;-75
2022/09/18 05:16:05;;;;;;;5.97;2.10;;;308.00;2304.00;;;;;;5144056;27;20071;-76
2022/09/18 05:18:31;;;;;;;3.17;2.00;;;308.00;2304.00;;;;;;5135447;27;20031;-76
2022/09/18 05:21:01;;;;;;;5.78;2.15;;;308.00;2304.00;;;;;;5114514;27;20031;-74
2022/09/18 05:23:27;;;;;;;4.50;2.00;;;308.10;2304.00;;;;;;5149021;27;20111;-74
2022/09/18 05:25:53;;;;;;;4.88;2.00;;;308.10;2304.00;;;;;;5138552;27;20112;-75
2022/09/18 05:28:18;;;;;;;3.55;2.13;;;308.10;2304.00;;;;;;5157810;27;20031;-78
2022/09/18 05:30:44;;;;;;;7.07;2.38;;;332.80;2329.60;;;;;;5114346;27;20019;-76
2022/09/18 05:33:10;;;;;;;5.63;2.10;;;332.80;2329.60;;;;;;5132976;27;20015;-76
2022/09/18 05:35:38;;;;;;;3.53;1.88;;;332.80;2329.60;;;;;;5133176;27;20106;-76
2022/09/18 05:38:04;;;;;;;4.90;2.00;;;332.80;2329.60;;;;;;5114444;28;20084;-76
2022/09/18 05:40:35;;;;;;;2.83;1.63;;;332.80;2329.60;;;;;;5133230;27;20020;-75
2022/09/18 05:43:04;;;;;;;3.30;1.70;;;332.80;2329.60;;;;;;5132431;27;20034;-78
2022/09/18 05:45:30;;;;;;;3.20;2.00;;;332.80;2329.60;;;;;;5114720;28;20023;-75
2022/09/18 05:47:58;;;;;;;4.05;1.92;;;332.90;2329.60;;;;;;5114204;27;20087;-76
2022/09/18 05:50:25;;;;;;;3.97;1.98;;;332.90;2329.60;;;;;;5141444;27;20022;-76
2022/09/18 05:53:06;;;;;;;4.55;1.63;;;333.00;2329.60;;;;;;5120234;27;20380;-76
2022/09/18 05:55:33;;;;;;;2.47;1.73;;;333.00;2329.60;;;;;;5132668;27;20023;-76
2022/09/18 05:58:00;;;;;;;5.57;2.22;;;333.00;2329.60;;;;;;5132907;27;20012;-78
2022/09/18 06:00:28;;;;;;;6.15;2.13;;;333.10;2329.60;;;;;;5114115;28;20681;-78
2022/09/18 06:02:59;;;;;;;8.77;1.90;;;333.20;2329.60;;;;;;5134335;27;20035;-78
2022/09/18 06:05:26;;;;;;;7.05;2.63;;;333.20;2329.60;;;;;;5118761;27;20024;-77
2022/09/18 06:07:52;;;;;;;13.48;3.58;;;333.20;2329.60;;;;;;5118403;27;20076;-77
2022/09/18 06:10:19;;;;;;;3.80;2.03;;;333.30;2329.60;;;;;;5119348;27;20043;-77
2022/09/18 06:12:45;;;;;;;3.58;1.67;;;333.30;2329.60;;;;;;5149601;27;20057;-78
2022/09/18 06:15:12;;;;;;;2.63;1.58;;;333.40;2329.60;;;;;;5118290;27;20027;-77
2022/09/18 06:17:39;;;;;;;2.80;1.50;;;333.60;2329.60;;;;;;5136198;27;20019;-78
2022/09/18 06:20:07;;;;;;;2.85;1.55;;;333.60;2329.60;;;;;;5137042;27;20015;-78
2022/09/18 06:22:36;;;;;;;2.95;1.50;;;333.60;2329.60;;;;;;5136612;27;20114;-77
2022/09/18 06:25:03;;;;;;;4.25;1.70;;;333.70;2329.60;;;;;;5136744;27;20018;-76
2022/09/18 06:27:29;;;;;;;5.43;2.20;;;333.70;2329.60;;;;;;5136498;27;20027;-75
2022/09/18 06:29:55;;;;;;;2.55;1.58;;;358.40;2329.60;;;;;;5117469;27;20084;-76
2022/09/18 06:32:21;;;;;;;2.88;1.60;;;358.50;2329.60;;;;;;5150749;27;20055;-76
2022/09/18 06:34:46;;;;;;;3.15;1.65;;;358.60;2329.60;;;;;;5136225;27;20465;-76
2022/09/18 06:37:13;;;;;;;3.25;1.58;;;358.60;2329.60;;;;;;5136351;27;20444;-76
2022/09/18 06:39:39;;;;;;;2.97;1.92;;;358.80;2329.60;;;;;;5136057;27;20023;-77
2022/09/18 06:42:05;;;;;;;3.05;1.65;;;358.90;2329.60;;;;;;5117753;27;20416;-76
2022/09/18 06:44:31;;;;;;;3.00;1.73;;;358.90;2329.60;;;;;;5144093;27;20027;-77
2022/09/18 06:46:57;;;;;;;3.72;1.67;;;359.00;2329.60;;;;;;5129758;27;20023;-77
2022/09/18 06:49:23;;;;;;;4.95;1.80;;;359.00;2329.60;;;;;;5117636;27;20027;-76
2022/09/18 06:51:49;;;;;;;5.25;1.60;;;359.20;2329.60;;;;;;5117614;27;20023;-77
2022/09/18 06:54:15;;;;;;;5.85;1.55;;;384.00;2329.60;;;;;;5117408;27;20019;-77
2022/09/18 06:56:42;;;;;;;4.55;1.80;;;384.00;2329.60;;;;;;5117675;27;20027;-76
2022/09/18 06:59:08;;;;;;;4.13;1.27;;;384.10;2329.60;;;;;;5117654;27;20019;-76
2022/09/18 07:01:34;;;;;;;4.93;1.75;;;384.20;2329.60;;;;;;5117158;27;20469;-76
2022/09/18 07:03:59;;;;;;;3.72;1.40;;;384.20;2329.60;;;;;;5149729;27;20043;-76
2022/09/18 07:06:25;;;;;;;4.05;1.83;;;384.40;2329.60;;;;;;5135564;27;20027;-77
2022/09/18 07:08:52;;;;;;;2.88;1.25;;;384.40;2329.60;;;;;;5135512;27;20034;-77
2022/09/18 07:11:17;;;;;;;4.63;1.63;;;384.50;2329.60;;;;;;5145004;27;20487;-77
2022/09/18 07:13:44;;;;;;;3.03;1.75;;;384.40;2329.60;;;;;;5120869;27;20029;-77
2022/09/18 07:16:10;;;;;;;4.88;1.23;;;384.50;2329.60;;;;;;5118108;27;20114;-77
2022/09/18 07:18:35;;;;;;;4.70;1.40;;;384.50;2329.60;;;;;;5125653;27;20098;-77
2022/09/18 07:21:01;;;;;;;3.95;1.40;;;384.60;2329.60;;;;;;5153597;27;20114;-77
2022/09/18 07:23:29;;;;;;;5.47;2.75;;;384.70;2329.60;;;;;;5117078;27;20031;-77
2022/09/18 07:25:58;;;;;;;5.57;1.30;;;384.70;2329.60;;;;;;5129427;27;20034;-77
2022/09/18 07:28:24;;;;;;;2.42;1.17;;;384.70;2329.60;;;;;;5156225;27;20019;-76
2022/09/18 07:30:49;;;;;;;5.60;1.80;;;384.80;2329.60;;;;;;5120207;27;20019;-77
2022/09/18 07:33:15;;;;;;;3.50;1.40;;;384.90;2329.60;;;;;;5119269;27;20035;-76
2022/09/18 07:35:41;;;;;;;3.30;1.23;;;384.90;2329.60;;;;;;5138652;27;20019;-77
2022/09/18 07:38:08;;;;;;;5.93;1.80;;;384.90;2329.60;;;;;;5116655;27;20400;-77
2022/09/18 07:40:33;;;;;;;1.83;1.20;;;384.90;2329.60;;;;;;5135248;27;20477;-76
2022/09/18 07:43:00;;;;;;;5.03;2.60;;;384.90;2329.60;;;;;;5144607;27;20039;-77
2022/09/18 07:45:26;;;;;;;2.67;1.40;;;384.90;2329.60;;;;;;5137024;27;20513;-77
2022/09/18 07:47:52;;;;;;;2.08;1.20;;;384.50;2329.60;;;;;;5129205;27;20463;-77
2022/09/18 07:50:18;;;;;;;4.03;1.80;;;384.90;2329.60;;;;;;5134846;27;20098;-76
2022/09/18 07:52:49;;;;;;;2.47;1.50;;;409.60;2355.20;;;;;;5134834;27;20038;-76
2022/09/18 07:55:15;;;;;;;11.30;1.30;;;409.60;2355.20;;;;;;5134716;27;20027;-76
2022/09/18 07:57:40;;;;;;;1.95;0.98;;;409.70;2355.20;;;;;;5116354;27;20544;-76
2022/09/18 08:00:09;;;;;;;2.63;1.35;;;409.80;2355.20;;;;;;5134610;27;20094;-76
2022/09/18 08:02:35;;;;;;;1.88;0.80;;;409.80;2355.20;;;;;;5130619;27;20476;-76
2022/09/18 08:05:01;;;;;;;4.70;1.63;;;409.80;2355.20;;;;;;5134145;27;20106;-77
2022/09/18 08:07:26;;;;;;;2.90;1.02;;;409.80;2355.20;;;;;;5134344;27;20027;-76
2022/09/18 08:09:52;;;;;;;2.58;0.98;;;409.80;2355.20;;;;;;5134337;27;20043;-76
2022/09/18 08:12:18;;;;;;;1.65;1.00;;;409.80;2355.20;;;;;;5165177;27;20061;-77
2022/09/18 08:14:43;;;;;;;3.30;1.38;;;409.80;2355.20;;;;;;5116141;27;20046;-77
2022/09/18 08:17:09;;;;;;;4.38;1.55;;;409.80;2355.20;;;;;;5115797;27;20118;-75
2022/09/18 08:19:35;;;;;;;4.68;1.35;;;409.80;2355.20;;;;;;5134253;27;20079;-76
2022/09/18 08:22:01;;;;;;;3.10;1.50;;;410.00;2355.20;;;;;;5115498;27;20550;-77
2022/09/18 08:24:26;;;;;;;3.78;1.55;;;410.00;2355.20;;;;;;5118005;27;20038;-78
2022/09/18 08:26:52;;;;;;;5.30;1.48;;;410.00;2355.20;;;;;;5159102;27;20018;-78
2022/09/18 08:29:18;;;;;;;3.08;1.35;;;410.10;2355.20;;;;;;5118066;27;20027;-79
2022/09/18 08:31:45;;;;;;;9.18;2.70;;;410.20;2355.20;;;;;;5139494;27;20023;-77
2022/09/18 08:34:11;;;;;;;3.00;1.25;;;410.20;2355.20;;;;;;5133825;27;20031;-78
2022/09/18 08:36:37;;;;;;;1.92;0.80;;;410.30;2355.20;;;;;;5150254;27;20030;-79
2022/09/18 08:39:03;;;;;;;5.80;1.77;;;410.20;2355.20;;;;;;5133994;27;20027;-79
2022/09/18 08:41:57;;;;;;;1.98;1.13;;;410.30;2355.20;;;;;;5115685;27;20086;-76
2022/09/18 08:44:27;;;;;;;2.42;1.38;;;410.40;2355.20;;;;;;5072649;28;20186;-77
2022/09/18 08:47:03;;;;;;;5.53;1.80;;;410.50;2355.20;;;;;;5062096;28;20114;-76
2022/09/18 08:49:36;;;;;;;2.72;1.25;;;435.20;2355.20;;;;;;5069727;28;20031;-76
2022/09/18 08:52:16;;;;;;;2.40;1.33;;;435.30;2329.60;;;;;;5053052;28;20538;-76
2022/09/18 08:54:58;;;;;;;2.55;0.98;;;435.30;2252.80;;;;;;5084552;28;20031;-76
2022/09/18 08:57:41;;;;;;;2.40;1.33;;;435.30;2150.40;;;;;;5090670;28;20088;-76
2022/09/18 09:00:19;;;;;;;1.95;1.20;;;435.40;2304.00;;;;;;5088379;28;20053;-76
2022/09/18 09:02:47;;;;;;;4.97;1.17;;;435.60;2355.20;;;;;;5069364;28;20113;-76
2022/09/18 09:05:32;;;;;;;3.72;1.40;;;435.50;2201.60;;;;;;5055640;28;20534;-76
2022/09/18 09:08:15;;;;;;;1.92;1.00;;;435.50;2176.00;;;;;;5077745;28;20125;-77
2022/09/18 09:10:59;;;;;;;3.40;1.20;;;435.60;2176.00;;;;;;5089972;28;20079;-76
2022/09/18 09:13:39;;;;;;;2.47;1.40;;;435.70;2201.60;;;;;;5060652;28;20021;-77
2022/09/18 09:16:15;;;;;;;3.38;1.63;;;435.90;2252.80;;;;;;5057072;28;20028;-78
2022/09/18 09:18:58;;;;;;;2.22;1.10;;;436.00;2176.00;;;;;;5084422;28;20500;-77
2022/09/18 09:22:02;;;;;;;3.03;1.15;;;436.10;2227.20;;;;;;5092459;27;20469;-79
2022/09/18 09:24:37;;;;;;;4.97;1.30;;;460.80;2150.40;;;;;;5133294;27;20388;-75
2022/09/18 09:27:40;;;;;;;2.67;1.10;;;460.90;2150.40;;;;;;5133185;27;20027;-74
2022/09/18 09:30:14;;;;;;;1.48;1.02;;;461.10;2252.80;;;;;;5124036;27;20438;-74
2022/09/18 09:32:46;;;;;;;3.00;1.30;;;461.10;2048.00;;;;;;5148763;27;20043;-75
2022/09/18 09:35:35;;;;;;;5.82;2.08;;;461.30;2201.60;;;;;;5132793;27;20102;-74
2022/09/18 09:38:16;;;;;;;3.00;0.90;;;461.40;2124.80;;;;;;5118694;27;20103;-74
2022/09/18 09:40:50;;;;;;;3.28;0.75;;;461.40;1996.80;;;;;;5132830;27;20114;-73
2022/09/18 09:43:27;;;;;;;2.08;1.35;;;461.50;2048.00;;;;;;5148652;27;20130;-75
2022/09/18 09:45:58;;;;;;;2.00;1.08;;;461.60;2176.00;;;;;;5114068;27;20104;-74
2022/09/18 09:48:34;;;;;;;2.10;0.90;;;461.70;2124.80;;;;;;5114245;28;20035;-73
2022/09/18 09:51:27;;;;;;;1.55;1.20;;;486.40;1996.80;;;;;;5132855;27;20071;-75
2022/09/18 09:53:54;;;;;;;2.80;1.30;;;486.60;1971.20;;;;;;5132931;28;20102;-74
2022/09/18 09:56:49;;;;;;;4.00;0.90;;;486.70;1996.80;;;;;;5132522;27;20047;-74
2022/09/18 09:59:51;;;;;;;2.17;0.70;;;486.80;1868.80;;;;;;5132589;27;20037;-74
2022/09/18 10:03:18;;;;;;;3.42;0.93;;;486.80;1843.20;;;;;;5132664;27;20027;-74
2022/09/18 10:06:19;;;;;;;2.08;1.00;;;486.50;1843.20;;;;;;5110074;28;20036;-74
2022/09/18 10:09:22;;;;;;;1.80;1.02;;;486.90;1920.00;;;;;;5109762;28;20061;-74
2022/09/18 10:12:20;;;;;;;1.95;1.27;;;487.10;1894.40;;;;;;5110045;28;20074;-74
2022/09/18 10:14:49;;;;;;;1.33;0.73;;;486.70;1843.20;;;;;;5099849;28;20115;-74
2022/09/18 10:17:18;;;;;;;6.55;1.00;;;486.90;1817.60;;;;;;5092186;28;20035;-74
2022/09/18 10:19:45;;;;;;;1.50;0.82;;;487.30;1817.60;;;;;;5109736;28;20596;-74
2022/09/18 10:22:15;;;;;;;1.75;1.02;;;512.00;1792.00;;;;;;5109814;28;20035;-75
2022/09/18 10:25:00;;;;;;;1.48;0.88;;;487.30;1792.00;;;;;;5109726;28;20035;-75
2022/09/18 10:27:26;;;;;;;2.50;0.75;;;512.00;1792.00;;;;;;5109913;28;20115;-75
2022/09/18 10:29:53;;;;;;;1.02;0.55;;;512.10;1766.40;;;;;;5100037;28;20111;-76
2022/09/18 10:32:42;;;;;;;1.38;0.75;;;487.00;1740.80;;;;;;5102387;28;20032;-76
2022/09/18 10:35:29;;;;;;;1.25;0.80;;;486.70;1817.60;;;;;;5093640;28;20028;-75
2022/09/18 10:37:56;;;;;;;1.15;0.75;;;486.50;1817.60;;;;;;5089292;28;20082;-74
2022/09/18 10:40:42;;;;;;;5.00;1.27;;;486.70;1766.40;;;;;;5098454;28;20126;-74
2022/09/18 10:43:17;;;;;;;1.80;0.88;;;486.80;1792.00;;;;;;5129166;27;20047;-75
2022/09/18 10:45:54;;;;;;;1.90;1.02;;;487.10;1740.80;;;;;;5131454;27;20030;-75
2022/09/18 10:48:24;;;;;;;4.55;0.88;;;512.20;1715.20;;;;;;5152641;27;20024;-75
2022/09/18 10:50:58;;;;;;;2.75;0.90;;;512.80;1689.60;;;;;;5117706;27;20105;-75
2022/09/18 10:53:32;;;;;;;1.45;0.80;;;512.70;1664.00;;;;;;5117241;27;20049;-75
2022/09/18 10:56:16;;;;;;;1.25;0.90;;;512.70;1638.40;;;;;;5135850;27;20400;-75
2022/09/18 10:58:43;;;;;;;2.83;0.73;;;537.60;1638.40;;;;;;5121985;27;20015;-74
2022/09/18 11:01:10;;;;;;;4.57;0.75;;;512.90;1561.60;;;;;;5117113;27;20053;-75
2022/09/18 11:03:45;;;;;;;1.83;0.70;;;512.60;1536.00;;;;;;5135568;27;20036;-75
2022/09/18 11:06:17;;;;;;;1.10;0.70;;;537.80;1536.00;;;;;;5116208;27;20023;-74
2022/09/18 11:08:48;;;;;;;1.42;0.95;;;538.20;1510.40;;;;;;5135335;27;20027;-74
2022/09/18 11:11:34;;;;;;;1.95;1.17;;;537.90;1587.20;;;;;;5144609;27;20043;-74
2022/09/18 11:14:04;;;;;;;;;;;538.40;1536.00;;;;;;5138048;27;20021;-73
2022/09/18 11:16:36;;;;;;;1.45;0.68;;;537.90;1510.40;;;;;;5135282;27;19903;-73
2022/09/18 11:19:11;;;;;;;0.93;0.68;;;538.40;1433.60;;;;;;5149947;27;20023;-74
2022/09/18 11:21:47;;;;;;;0.63;0.63;;;563.30;1484.80;;;;;;5115969;27;20119;-74
2022/09/18 11:24:30;;;;;;;1.92;0.75;;;563.60;1382.40;;;;;;5134916;27;20063;-74
2022/09/18 11:26:58;;;;;;;2.92;0.60;;;563.40;1408.00;;;;;;5132694;27;20019;-74
2022/09/18 11:29:33;;;;;;;0.63;0.60;;;563.20;1484.80;;;;;;5118613;27;20362;-73
2022/09/18 11:32:09;;;;;;;1.90;0.82;;;538.20;1459.20;;;;;;5136169;27;20442;-75
2022/09/18 11:34:38;;;;;;;1.13;0.70;;;538.10;1484.80;;;;;;5134807;27;20071;-74
2022/09/18 11:37:13;;;;;;;2.53;0.50;;;537.70;1484.80;;;;;;5139638;27;20050;-75
2022/09/18 11:39:43;;;;;;;1.63;0.70;;;538.40;1433.60;;;;;;5135497;27;20019;-74
2022/09/18 11:42:12;;;;;;;2.97;0.90;;;538.10;1459.20;;;;;;5123491;27;20027;-74
2022/09/18 11:44:38;;;;;;;2.30;1.02;;;537.70;1484.80;;;;;;5115788;27;20027;-74
2022/09/18 11:47:26;;;;;;;1.15;0.60;;;538.50;1433.60;;;;;;5118499;27;20422;-74
2022/09/18 11:50:14;;;;;;;2.15;0.57;;;563.40;1433.60;;;;;;5131285;27;20019;-74
2022/09/18 11:52:44;;;;;;;2.55;1.00;;;563.60;1408.00;;;;;;5129441;27;20099;-74
2022/09/18 11:55:09;;;;;;;1.70;0.75;;;563.80;1408.00;;;;;;5136805;27;20043;-75
2022/09/18 11:57:39;;;;;;;1.73;0.60;;;563.90;1408.00;;;;;;5114731;27;20059;-74
2022/09/18 12:00:09;;;;;;;0.82;0.63;;;564.10;1382.40;;;;;;5133673;27;20429;-74
2022/09/18 12:02:41;;;;;;;1.65;0.80;;;564.00;1408.00;;;;;;5131439;27;20102;-75
2022/09/18 12:05:28;;;;;;;6.20;1.35;;;588.80;1356.80;;;;;;5118065;27;20027;-77
2022/09/18 12:08:11;;;;;;;2.13;1.00;;;588.80;1356.80;;;;;;5132828;27;20082;-78
2022/09/18 12:10:46;;;;;;;1.92;0.57;;;589.00;1331.20;;;;;;5134854;27;20276;-79
2022/09/18 12:13:33;;;;;;;1.35;0.77;;;589.00;1331.20;;;;;;5133998;27;20015;-78
2022/09/18 12:16:16;;;;;;;1.20;0.77;;;589.10;1356.80;;;;;;5136931;27;20358;-78
2022/09/18 12:19:16;;;;;;;1.30;0.65;;;589.30;1331.20;;;;;;5145661;27;20027;-78
2022/09/18 12:21:42;;;;;;;0.90;0.80;;;589.40;1356.80;;;;;;5116654;27;20019;-78
2022/09/18 12:24:13;;;;;;;3.85;2.17;;;589.50;1356.80;;;;;;5136450;27;20027;-77
2022/09/18 12:26:57;;;;;;;1.40;0.95;;;589.50;1356.80;;;;;;5118139;27;20038;-79
2022/09/18 12:29:43;;;;;;;2.05;0.82;;;588.90;1356.80;;;;;;5137901;27;20075;-78
2022/09/18 12:32:33;;;;;;;1.35;0.60;;;563.90;1356.80;;;;;;5133588;27;20385;-79
2022/09/18 12:35:20;;;;;;;2.88;0.90;;;563.30;1382.40;;;;;;5113338;27;20034;-78
2022/09/18 12:38:23;;;;;;;0.88;0.60;;;538.40;1408.00;;;;;;5132788;27;20011;-78
2022/09/18 12:41:11;;;;;;;0.88;0.73;;;563.60;1459.20;;;;;;5134723;27;20031;-79
2022/09/18 12:43:43;;;;;;;0.63;0.60;;;563.40;1433.60;;;;;;5139691;27;20113;-79